createdAt,value
2023-04-29T00:30:44.973Z,11.13
2023-04-29T00:34:46.414Z,10.78
2023-04-29T00:38:47.841Z,10.77
2023-04-29T00:42:49.354Z,10.96
2023-04-29T00:46:50.764Z,11.07
2023-04-29T00:50:53.043Z,11.07
2023-04-29T00:54:54.701Z,11.15
2023-04-29T00:58:57.345Z,11.21
2023-04-29T01:02:59.751Z,11.23
2023-04-29T01:07:21.697Z,11.07
2023-04-29T01:11:28.849Z,11.10
2023-04-29T01:15:40.582Z,10.86
2023-04-29T01:19:47.839Z,10.53
2023-04-29T01:23:55.831Z,10.46
2023-04-29T01:28:03.913Z,10.33
2023-04-29T01:32:11.577Z,10.52
2023-04-29T01:36:23.670Z,10.61
2023-04-29T01:40:43.088Z,10.61
2023-04-29T01:44:46.426Z,10.48
2023-04-29T01:48:47.829Z,10.56
2023-04-29T01:52:49.261Z,10.43
2023-04-29T01:56:51.973Z,10.42
2023-04-29T02:00:53.802Z,10.31
2023-04-29T02:04:55.887Z,9.89
2023-04-29T02:09:00.544Z,9.72
2023-04-29T02:13:02.584Z,10.07
2023-04-29T02:17:04.053Z,10.20
2023-04-29T02:21:05.656Z,10.21
2023-04-29T02:25:07.420Z,10.33
2023-04-29T02:29:09.999Z,10.15
2023-04-29T02:33:11.566Z,10.07
2023-04-29T02:37:13.067Z,10.16
2023-04-29T02:41:18.192Z,9.96
2023-04-29T02:45:19.706Z,10.00
2023-04-29T02:49:21.390Z,9.91
2023-04-29T02:53:23.318Z,9.80
2023-04-29T02:57:24.725Z,9.98
2023-04-29T03:01:26.276Z,9.88
2023-04-29T03:05:27.794Z,9.98
2023-04-29T03:09:29.379Z,9.87
2023-04-29T03:13:30.841Z,9.90
2023-04-29T03:17:32.876Z,9.76
2023-04-29T03:21:34.338Z,9.84
2023-04-29T03:25:36.954Z,10.09
2023-04-29T03:29:38.475Z,10.17
2023-04-29T03:33:39.918Z,10.00
2023-04-29T03:37:44.153Z,9.97
2023-04-29T03:41:47.729Z,9.91
2023-04-29T03:45:49.253Z,10.07
2023-04-29T03:49:50.994Z,10.20
2023-04-29T03:53:54.504Z,10.37
2023-04-29T03:57:55.989Z,10.23
2023-04-29T04:01:58.471Z,10.17
2023-04-29T04:05:59.962Z,10.34
2023-04-29T04:10:01.536Z,10.04
2023-04-29T04:14:03.087Z,10.14
2023-04-29T04:18:04.552Z,10.17
2023-04-29T04:22:06.098Z,10.31
2023-04-29T04:26:07.683Z,10.20
2023-04-29T04:30:09.613Z,10.33
2023-04-29T04:34:11.130Z,10.40
2023-04-29T04:38:12.629Z,10.36
2023-04-29T04:42:14.381Z,10.33
2023-04-29T04:46:17.394Z,10.22
2023-04-29T04:50:20.228Z,10.35
2023-04-29T04:54:21.648Z,10.32
2023-04-29T04:58:23.090Z,10.65
2023-04-29T05:02:24.810Z,10.58
2023-04-29T05:06:26.674Z,10.44
2023-04-29T05:10:28.149Z,10.41
2023-04-29T05:14:29.550Z,10.33
2023-04-29T05:18:30.966Z,10.49
2023-04-29T05:22:32.487Z,10.23
2023-04-29T05:26:33.996Z,10.58
2023-04-29T05:30:35.698Z,10.45
2023-04-29T05:34:37.304Z,10.52
2023-04-29T05:38:39.263Z,10.29
2023-04-29T05:42:40.673Z,10.46
2023-04-29T05:46:42.295Z,10.71
2023-04-29T05:50:44.253Z,10.62
2023-04-29T05:54:45.744Z,10.82
2023-04-29T05:58:47.159Z,10.70
2023-04-29T06:02:58.102Z,10.86
2023-04-29T06:07:00.451Z,10.88
2023-04-29T06:11:03.541Z,11.08
2023-04-29T06:15:05.746Z,11.10
2023-04-29T06:19:07.182Z,11.01
2023-04-29T06:23:08.791Z,11.13
2023-04-29T06:27:12.840Z,11.25
2023-04-29T06:31:14.331Z,11.28
2023-04-29T06:35:16.044Z,11.35
2023-04-29T06:39:17.470Z,11.29
2023-04-29T06:43:18.884Z,11.41
2023-04-29T06:47:20.478Z,11.29
2023-04-29T06:51:21.991Z,11.17
2023-04-29T06:55:23.389Z,10.98
2023-04-29T06:59:24.845Z,11.20
2023-04-29T07:03:26.429Z,11.17
2023-04-29T07:07:28.081Z,11.07
2023-04-29T07:11:29.808Z,11.00
2023-04-29T07:15:34.524Z,11.12
2023-04-29T07:19:36.150Z,11.02
2023-04-29T07:23:37.578Z,11.04
2023-04-29T07:27:39.109Z,10.90
2023-04-29T07:31:40.546Z,10.84
2023-04-29T07:35:43.222Z,10.72
2023-04-29T07:39:44.741Z,10.75
2023-04-29T07:43:46.207Z,10.72
2023-04-29T07:47:48.776Z,10.94
2023-04-29T07:51:50.361Z,10.79
2023-04-29T07:55:51.857Z,10.81
2023-04-29T07:59:53.961Z,10.83
2023-04-29T08:03:55.654Z,10.81
2023-04-29T08:07:58.667Z,10.49
2023-04-29T08:12:00.080Z,10.71
2023-04-29T08:16:01.605Z,10.66
2023-04-29T08:20:03.588Z,10.49
2023-04-29T08:24:05.873Z,10.81
2023-04-29T08:28:07.590Z,10.78
2023-04-29T08:32:09.150Z,10.75
2023-04-29T08:36:10.806Z,10.67
2023-04-29T08:40:13.560Z,10.23
2023-04-29T08:44:17.285Z,10.36
2023-04-29T08:48:19.591Z,10.50
2023-04-29T08:52:21.127Z,10.52
2023-04-29T08:56:23.170Z,10.66
2023-04-29T09:00:25.235Z,10.65
2023-04-29T09:04:32.666Z,10.66
2023-04-29T09:08:34.219Z,10.51
2023-04-29T09:12:36.178Z,10.44
2023-04-29T09:16:38.821Z,10.29
2023-04-29T09:20:40.314Z,10.22
2023-04-29T09:24:43.723Z,10.27
2023-04-29T09:28:45.332Z,10.59
2023-04-29T09:33:03.670Z,10.42
2023-04-29T09:37:24.509Z,10.18
2023-04-29T09:41:25.929Z,10.24
2023-04-29T09:45:33.679Z,10.20
2023-04-29T09:49:44.680Z,10.10
2023-04-29T09:53:46.540Z,10.25
2023-04-29T09:57:48.042Z,10.22
2023-04-29T10:01:51.454Z,10.07
2023-04-29T10:05:53.508Z,10.22
2023-04-29T10:09:55.940Z,10.18
2023-04-29T10:13:58.575Z,10.22
2023-04-29T10:18:12.417Z,10.33
2023-04-29T10:22:22.570Z,10.50
2023-04-29T10:26:28.471Z,10.27
2023-04-29T10:30:31.724Z,10.68
2023-04-29T10:34:34.932Z,10.17
2023-04-29T10:38:41.655Z,10.39
2023-04-29T10:42:48.070Z,10.66
2023-04-29T10:46:49.919Z,9.97
2023-04-29T10:50:51.298Z,10.27
2023-04-29T10:55:12.377Z,10.27
2023-04-29T10:59:16.053Z,10.19
2023-04-29T11:03:59.874Z,10.23
2023-04-29T11:08:11.005Z,10.47
2023-04-29T11:12:13.531Z,10.64
2023-04-29T11:16:15.134Z,10.62
2023-04-29T11:20:16.785Z,10.77
2023-04-29T11:24:18.252Z,10.79
2023-04-29T11:28:20.209Z,11.00
2023-04-29T11:32:23.186Z,11.06
2023-04-29T11:36:25.659Z,11.13
2023-04-29T11:40:27.209Z,11.61
2023-04-29T11:44:28.645Z,11.74
2023-04-29T11:48:30.323Z,11.77
2023-04-29T11:52:32.703Z,12.21
2023-04-29T11:56:34.190Z,11.83
2023-04-29T12:00:36.106Z,11.16
2023-04-29T12:04:48.252Z,11.60
2023-04-29T12:08:51.140Z,11.75
2023-04-29T12:12:52.969Z,11.70
2023-04-29T12:16:54.506Z,12.08
2023-04-29T12:20:56.607Z,12.07
2023-04-29T12:24:58.130Z,12.17
2023-04-29T12:28:59.759Z,12.10
2023-04-29T12:33:02.524Z,12.28
2023-04-29T12:37:03.966Z,11.76
2023-04-29T12:41:07.821Z,11.89
2023-04-29T12:45:09.658Z,11.84
2023-04-29T12:49:11.251Z,11.89
2023-04-29T12:53:13.387Z,12.08
2023-04-29T12:57:14.789Z,12.15
2023-04-29T13:01:18.381Z,12.48
2023-04-29T13:05:20.617Z,12.85
2023-04-29T13:09:22.134Z,13.17
2023-04-29T13:13:25.399Z,13.22
2023-04-29T13:17:26.912Z,13.55
2023-04-29T13:21:28.580Z,13.98
2023-04-29T13:25:30.049Z,14.23
2023-04-29T13:29:31.637Z,14.48
2023-04-29T13:33:33.128Z,13.79
2023-04-29T13:37:34.800Z,13.90
2023-04-29T13:41:36.352Z,13.95
2023-04-29T13:45:41.308Z,14.18
2023-04-29T13:50:19.661Z,13.69
2023-04-29T14:02:25.103Z,15.41
2023-04-29T14:06:28.285Z,15.21
2023-04-29T14:10:29.814Z,14.86
2023-04-29T14:14:31.365Z,14.64
2023-04-29T14:18:33.067Z,14.42
2023-04-29T14:22:34.476Z,14.21
2023-04-29T14:26:37.006Z,13.94
2023-04-29T14:30:38.567Z,13.99
2023-04-29T14:34:40.004Z,13.99
2023-04-29T14:38:41.457Z,14.19
2023-04-29T14:42:42.989Z,14.43
2023-04-29T14:46:44.508Z,14.55
2023-04-29T14:50:46.194Z,16.12
2023-04-29T14:54:47.652Z,16.74
2023-04-29T14:58:49.109Z,18.07
2023-04-29T15:02:50.715Z,17.30
2023-04-29T15:06:52.238Z,17.59
2023-04-29T15:10:53.781Z,17.69
2023-04-29T15:14:55.458Z,16.45
2023-04-29T15:18:57.098Z,15.61
2023-04-29T15:22:58.668Z,15.87
2023-04-29T15:27:00.129Z,15.86
2023-04-29T15:31:03.720Z,15.76
2023-04-29T15:35:06.667Z,15.10
2023-04-29T15:39:10.863Z,14.94
2023-04-29T15:43:12.282Z,15.01
2023-04-29T15:47:15.538Z,14.45
2023-04-29T15:51:17.012Z,14.18
2023-04-29T15:55:18.775Z,14.18
2023-04-29T15:59:20.273Z,13.70
2023-04-29T16:03:21.889Z,13.86
2023-04-29T16:07:23.369Z,13.59
2023-04-29T16:11:24.776Z,13.50
2023-04-29T16:15:27.334Z,13.21
2023-04-29T16:19:28.972Z,13.41
2023-04-29T16:23:30.561Z,13.53
2023-04-29T16:27:32.211Z,13.36
2023-04-29T16:31:36.468Z,13.52
2023-04-29T16:35:38.064Z,13.31
2023-04-29T16:39:44.470Z,13.69
2023-04-29T16:43:46.210Z,13.71
2023-04-29T16:47:47.677Z,13.83
2023-04-29T16:51:49.677Z,14.06
2023-04-29T16:55:51.401Z,14.69
2023-04-29T16:59:53.044Z,14.68
2023-04-29T17:03:55.433Z,14.78
2023-04-29T17:07:57.117Z,13.92
2023-04-29T17:11:58.539Z,15.08
2023-04-29T17:16:00.054Z,15.64
2023-04-29T17:20:01.625Z,15.97
2023-04-29T17:24:03.160Z,16.76
2023-04-29T17:28:06.180Z,16.31
2023-04-29T17:32:10.844Z,16.87
2023-04-29T17:36:12.340Z,16.09
2023-04-29T17:40:13.862Z,15.18
2023-04-29T17:44:15.304Z,14.79
2023-04-29T17:48:19.284Z,14.48
2023-04-29T17:52:23.518Z,14.32
2023-04-29T17:56:26.247Z,13.93
2023-04-29T18:00:27.647Z,13.64
2023-04-29T18:04:29.081Z,13.65
2023-04-29T18:08:30.640Z,13.41
2023-04-29T18:12:34.163Z,13.22
2023-04-29T18:16:35.729Z,13.09
2023-04-29T18:20:37.332Z,12.96
2023-04-29T18:24:38.837Z,12.67
2023-04-29T18:28:40.260Z,12.68
2023-04-29T18:32:41.809Z,12.61
2023-04-29T18:36:43.273Z,12.74
2023-04-29T18:40:44.746Z,12.61
2023-04-29T18:44:48.178Z,12.57
2023-04-29T18:48:49.657Z,12.39
2023-04-29T18:52:51.102Z,12.17
2023-04-29T18:56:52.697Z,12.20
2023-04-29T19:00:54.434Z,12.23
2023-04-29T19:04:56.668Z,12.03
2023-04-29T19:08:58.600Z,12.04
2023-04-29T19:13:00.043Z,12.32
2023-04-29T19:17:01.492Z,12.37
2023-04-29T19:21:03.101Z,12.33
2023-04-29T19:25:05.133Z,12.17
2023-04-29T19:29:07.269Z,12.13
2023-04-29T19:33:08.830Z,12.27
2023-04-29T19:37:10.384Z,12.27
2023-04-29T19:41:12.014Z,12.12
2023-04-29T19:45:13.532Z,12.25
2023-04-29T19:49:14.973Z,11.95
2023-04-29T19:53:16.872Z,11.86
2023-04-29T19:57:18.356Z,11.79
2023-04-29T20:01:19.891Z,11.52
2023-04-29T20:05:21.392Z,11.55
2023-04-29T20:09:22.927Z,11.46
2023-04-29T20:13:24.383Z,11.44
2023-04-29T20:17:25.932Z,11.37
2023-04-29T20:21:27.689Z,11.22
2023-04-29T20:25:29.180Z,10.96
2023-04-29T20:29:30.676Z,11.06
2023-04-29T20:33:32.208Z,10.91
2023-04-29T20:37:33.766Z,10.82
2023-04-29T20:41:35.413Z,10.58
2023-04-29T20:45:37.735Z,10.68
2023-04-29T20:49:39.233Z,10.63
2023-04-29T20:53:40.780Z,10.57
2023-04-29T20:57:42.202Z,10.61
2023-04-29T21:01:45.395Z,10.65
2023-04-29T21:05:46.939Z,10.32
2023-04-29T21:09:48.915Z,10.43
2023-04-29T21:13:51.486Z,10.50
2023-04-29T21:17:53.021Z,10.55
2023-04-29T21:21:54.534Z,10.52
2023-04-29T21:25:56.076Z,10.64
2023-04-29T21:29:57.704Z,10.47
2023-04-29T21:34:00.222Z,10.39
2023-04-29T21:38:01.732Z,10.42
2023-04-29T21:42:03.946Z,10.49
2023-04-29T21:46:07.694Z,10.38
2023-04-29T21:50:10.701Z,10.18
2023-04-29T21:54:12.169Z,9.91
2023-04-29T21:58:14.044Z,9.88
2023-04-29T22:02:22.231Z,10.05
2023-04-29T22:06:24.957Z,10.02
2023-04-29T22:10:27.132Z,9.70
2023-04-29T22:14:28.823Z,9.93
2023-04-29T22:18:30.326Z,10.07
2023-04-29T22:22:31.909Z,9.82
2023-04-29T22:26:33.340Z,9.78
2023-04-29T22:30:34.844Z,9.70
2023-04-29T22:34:36.699Z,9.71
2023-04-29T22:38:38.182Z,9.48
2023-04-29T22:42:39.731Z,9.44
2023-04-29T22:46:41.208Z,9.46
2023-04-29T22:50:49.106Z,9.35
2023-04-29T22:54:50.559Z,9.23
2023-04-29T22:58:52.029Z,9.28
2023-04-29T23:02:53.574Z,9.16
2023-04-29T23:06:55.026Z,9.10
2023-04-29T23:10:56.526Z,9.09
2023-04-29T23:14:57.981Z,8.96
2023-04-29T23:18:59.440Z,8.92
2023-04-29T23:23:00.902Z,8.86
2023-04-29T23:27:05.151Z,8.81
2023-04-29T23:31:06.657Z,8.74
2023-04-29T23:35:11.366Z,8.69
2023-04-29T23:39:13.501Z,8.73
2023-04-29T23:43:15.097Z,8.57
2023-04-29T23:47:16.562Z,8.50
2023-04-29T23:51:17.991Z,8.43
2023-04-29T23:55:20.622Z,8.51
2023-04-29T23:59:22.144Z,8.36
